Terminal Aerodrome Forecast
Issued by NWS Cleveland, OH

Home | Current Version | Previous Version | Graphics & Text | Print | Product List | Glossary On
Versions: 1 2 3 4 5 6 7 8 9 10 11 12 13 14 15
454
FTUS41 KCLE 260530
TAFCAK
TAF
KCAK 260530Z 2606/2706 24006KT P6SM SCT080
     FM261500 26014G22KT P6SM BKN040
     FM261800 26014G22KT P6SM OVC040=

USA.gov is the U.S. government's official web portal to all federal, state and local government web resources and services.